Flight Track Log - Related Links

Times and Time Zones

All times are in EST time to prevent confusion due to time zone crossing. See the CSN6820 flight status page for this flight to view local times or setup timezone preferences in your user account.


Time Position Orientation Groundspeed Altitude Reporting Facility
EST Latitude Longitude Course Direction KTS MPH feet Rate Location/Type
Tue 10:40:00 AM 37.1495 79.9726 38° Northeast  Level Estimated
Tue 10:41:00 AM 37.2603 80.0805 38° Northeast  Level Estimated
Tue 10:42:00 AM 37.3710 80.1888 38° Northeast  Level Estimated
Tue 10:43:00 AM 37.4817 80.2974 38° Northeast  Level Estimated
Tue 10:44:00 AM 37.5922 80.4063 38° Northeast  Level Estimated
Tue 10:45:00 AM 37.7027 80.5156 38° Northeast  Level Estimated
Tue 10:46:00 AM 37.8130 80.6251 38° Northeast  Level Estimated
Tue 10:47:00 AM 37.9233 80.7350 38° Northeast  Level Estimated
Tue 10:48:00 AM 38.0334 80.8453 38° Northeast  Level Estimated
Tue 10:49:00 AM 38.1435 80.9558 38° Northeast  Level Estimated
Tue 10:50:00 AM 38.2534 81.0667 38° Northeast  Level Estimated
Tue 10:51:00 AM 38.3632 81.1779 38° Northeast  Level Estimated
Tue 10:52:00 AM 38.4729 81.2895 39° Northeast  Level Estimated
Tue 10:53:00 AM 38.5826 81.4014 39° Northeast  Level Estimated
Tue 10:54:00 AM 38.6921 81.5137 39° Northeast  Level Estimated
Tue 10:55:00 AM 38.8015 81.6263 39° Northeast  Level Estimated
Tue 10:56:00 AM 38.9108 81.7392 39° Northeast  Level Estimated
Tue 10:57:00 AM 39.0199 81.8525 39° Northeast  Level Estimated
Tue 10:58:00 AM 39.1290 81.9661 39° Northeast  Level Estimated
Tue 10:59:00 AM 39.2380 82.0801 39° Northeast  Level Estimated
Tue 11:00:00 AM 39.3468 82.1944 39° Northeast  Level Estimated
Tue 11:01:00 AM 39.4556 82.3091 39° Northeast  Level Estimated
Tue 11:02:00 AM 39.5642 82.4242 39° Northeast  Level Estimated
Tue 11:03:00 AM 39.6727 82.5396 39° Northeast  Level Estimated
Tue 11:04:00 AM 39.7811 82.6554 39° Northeast  Level Estimated
Tue 11:05:00 AM 39.8894 82.7716 39° Northeast  Level Estimated
Tue 11:06:00 AM 39.9976 82.8881 40° Northeast  Level Estimated
Tue 11:07:00 AM 40.1056 83.0049 40° Northeast  Level Estimated
Tue 11:08:00 AM 40.2135 83.1222 40° Northeast  Level Estimated
Tue 11:09:00 AM 40.3214 83.2398 40° Northeast  Level Estimated
Tue 11:10:00 AM 40.4290 83.3578 40° Northeast  Level Estimated
Tue 11:11:00 AM 40.5366 83.4762 40° Northeast  Level Estimated
Tue 11:12:00 AM 40.6441 83.5950 40° Northeast  Level Estimated
Tue 11:13:00 AM 40.7514 83.7141 40° Northeast  Level Estimated
Tue 11:14:00 AM 40.8586 83.8336 40° Northeast  Level Estimated
Tue 11:15:00 AM 40.9657 83.9536 40° Northeast  Level Estimated
Tue 11:16:00 AM 41.0726 84.0739 40° Northeast  Level Estimated
Tue 11:17:00 AM 41.1795 84.1946 40° Northeast  Level Estimated
Tue 11:18:00 AM 41.2862 84.3157 40° Northeast  Level Estimated
Tue 11:19:00 AM 41.3928 84.4371 41° Northeast  Level Estimated
Tue 11:20:00 AM 41.4992 84.5590 41° Northeast  Level Estimated
Tue 11:21:00 AM 41.6055 84.6813 41° Northeast  Level Estimated
Tue 11:22:00 AM 41.7117 84.8040 41° Northeast  Level Estimated
Tue 11:23:00 AM 41.8178 84.9271 41° Northeast  Level Estimated
Tue 11:24:00 AM 41.9237 85.0506 41° Northeast  Level Estimated
Tue 11:25:00 AM 42.0295 85.1746 41° Northeast  Level Estimated
Tue 11:26:00 AM 42.1352 85.2989 41° Northeast  Level Estimated
Tue 11:27:00 AM 42.2407 85.4236 41° Northeast  Level Estimated
Tue 11:28:00 AM 42.3461 85.5488 41° Northeast  Level Estimated
Tue 11:29:00 AM 42.4514 85.6744 41° Northeast  Level Estimated
Tue 11:30:00 AM 42.5565 85.8004 41° Northeast  Level Estimated
Tue 11:31:00 AM 42.6614 85.9268 42° Northeast  Level Estimated
Tue 11:32:00 AM 42.7663 86.0537 42° Northeast  Level Estimated
Tue 11:33:00 AM 42.8710 86.1810 42° Northeast  Level Estimated
Tue 11:34:00 AM 42.9756 86.3087 42° Northeast  Level Estimated
Tue 11:35:00 AM 43.0800 86.4368 42° Northeast  Level Estimated
Tue 11:36:00 AM 43.1842 86.5654 42° Northeast  Level Estimated
Tue 11:37:00 AM 43.2884 86.6945 42° Northeast  Level Estimated
Tue 11:38:00 AM 43.3923 86.8239 42° Northeast  Level Estimated
Tue 11:39:00 AM 43.4962 86.9538 42° Northeast  Level Estimated
Tue 11:40:00 AM 43.5999 87.0842 42° Northeast  Level Estimated
Tue 11:41:00 AM 43.7034 87.2150 42° Northeast  Level Estimated
Tue 11:42:00 AM 43.8068 87.3463 42° Northeast  Level Estimated
Tue 11:43:00 AM 43.9071 87.4742 43° Northeast  Level Estimated
Tue 11:44:00 AM 43.9071 87.4742 144° Southeast  Level Estimated
Tue 11:45:00 AM 43.9071 87.4742 144° Southeast  Level Estimated
Tue 11:46:00 AM 43.9071 87.4742 144° Southeast  Level Estimated
Tue 11:47:00 AM 43.9071 87.4742 144° Southeast  Level Estimated
Tue 11:48:00 AM 43.9071 87.4742 144° Southeast  Level Estimated
Tue 11:49:00 AM 43.9071 87.4742 144° Southeast  Level Estimated
Tue 11:50:00 AM 43.9071 87.4742 144° Southeast  Level Estimated
Tue 11:51:00 AM 43.9071 87.4742 144° Southeast  Level Estimated
Tue 11:52:00 AM 43.9071 87.4742 144° Southeast  Level Estimated
Tue 11:53:00 AM 43.9071 87.4742 144° Southeast  Level Estimated
Tue 11:54:00 AM 43.9071 87.4742 144° Southeast  Level Estimated
Tue 11:55:00 AM 43.9071 87.4742 144° Southeast  Level Estimated
Tue 11:56:00 AM 43.9071 87.4742 144° Southeast  Level Estimated
Tue 11:57:00 AM 43.9071 87.4742 144° Southeast  Level Estimated
Tue 11:58:00 AM 43.9071 87.4742 144° Southeast  Level Estimated
Tue 11:59:00 AM 43.9071 87.4742 144° Southeast  Level Estimated
Tue 12:00:00 PM 43.9071 87.4742 144° Southeast  Level Estimated

Login

Don't have an account? Register now (free) for customized features, flight alerts, and more!